KO4WIL-13 Weather Reports


time (UTC)temp
F
wind
direction
speed
knots
gust
knots
rain 1hr
in
rain 24hr
in
rain mn
in
humidity
%
barometer
mb
20260509000649 65 280 0.0 0.0 0.00 0.00 0.00 45 964.9
20260509000147 66 247 0.0 0.0 0.00 0.00 0.00 43 965.0
20260508235645 67 274 0.0 0.0 0.00 0.00 0.00 41 965.0
20260508235143 68 277 0.0 0.0 0.00 0.00 0.00 39 964.9
20260508234641 68 290 0.0 0.0 0.00 0.00 0.00 38 964.8
20260508234139 68 265 0.0 0.0 0.00 0.00 0.00 39 964.8
20260508233637 68 233 0.0 0.0 0.00 0.00 0.00 38 964.8
20260508233135 68 239 0.0 0.9 0.00 0.00 0.00 37 964.8
20260508232633 68 244 0.9 0.9 0.00 0.00 0.00 36 964.8
20260508232131 68 243 0.9 0.9 0.00 0.00 0.00 35 964.8
20260508231630 68 237 0.9 0.9 0.00 0.00 0.00 37 964.8
20260508231127 68 236 0.9 0.9 0.00 0.00 0.00 36 964.8
20260508230625 68 247 0.9 1.7 0.00 0.00 0.00 34 964.8
20260508230123 68 252 0.9 0.9 0.00 0.00 0.00 36 964.8
20260508225621 69 240 0.9 1.7 0.00 0.00 0.00 35 964.9
20260508225119 69 288 0.0 0.9 0.00 0.00 0.00 35 964.9
20260508224617 69 269 0.9 0.9 0.00 0.00 0.00 35 965.0
20260508224115 68 212 0.9 1.7 0.00 0.00 0.00 34 965.0
20260508223613 68 226 0.9 1.7 0.00 0.00 0.00 35 965.1
20260508223111 68 254 0.9 0.9 0.00 0.00 0.00 35 965.1
20260508222609 68 265 0.9 0.9 0.00 0.00 0.00 35 965.1
20260508222107 68 238 0.9 1.7 0.00 0.00 0.00 36 965.1
20260508221605 68 233 1.7 2.6 0.00 0.00 0.00 34 965.1
20260508221103 68 219 0.9 0.9 0.00 0.00 0.00 35 965.2
20260508220601 68 206 0.9 0.9 0.00 0.00 0.00 35 965.1
20260508220059 68 236 0.9 1.7 0.00 0.00 0.00 34 965.1
20260508215557 68 240 1.7 2.6 0.00 0.00 0.00 34 965.1
20260508215054 68 253 0.9 1.7 0.00 0.00 0.00 34 965.1
20260508214552 68 209 0.9 1.7 0.00 0.00 0.00 34 965.2
20260508214051 68 223 0.9 0.9 0.00 0.00 0.00 35 965.2
20260508213548 68 224 0.0 0.9 0.00 0.00 0.00 33 965.2
20260508213046 68 223 0.9 1.7 0.00 0.00 0.00 34 965.2
20260508212544 67 220 1.7 1.7 0.00 0.00 0.00 33 965.1
20260508212042 67 228 0.9 0.9 0.00 0.00 0.00 33 965.0
20260508211540 67 234 0.9 1.7 0.00 0.00 0.00 33 965.1
20260508211039 67 260 0.0 0.9 0.00 0.00 0.00 37 965.2
20260508210536 67 241 0.9 1.7 0.00 0.00 0.00 36 965.1
20260508210034 67 221 0.9 1.7 0.00 0.00 0.00 39 965.2
20260508205531 67 152 0.9 0.9 0.00 0.00 0.00 39 965.2
20260508205029 67 167 0.9 1.7 0.00 0.00 0.00 37 965.2
20260508204527 68 252 0.9 0.9 0.00 0.00 0.00 37 965.2
20260508204025 67 200 0.0 0.0 0.00 0.00 0.00 40 965.3
20260508203523 67 152 0.9 0.9 0.00 0.00 0.00 38 965.4
20260508203021 67 239 1.7 1.7 0.00 0.00 0.00 35 965.5
20260508202518 67 214 0.9 0.9 0.00 0.00 0.00 40 965.4
20260508202016 67 234 0.9 1.7 0.00 0.00 0.00 37 965.5
20260508201513 67 230 1.7 2.6 0.00 0.00 0.00 40 965.6
20260508201011 67 239 0.0 0.9 0.00 0.00 0.00 39 965.7
20260508200509 67 209 0.9 1.7 0.00 0.00 0.00 40 965.8
20260508200007 67 166 0.9 1.7 0.00 0.00 0.00 40 965.9
20260508195505 66 191 0.9 0.9 0.00 0.00 0.00 43 966.0
20260508195003 66 190 0.9 1.7 0.00 0.00 0.00 39 966.1
20260508194501 66 194 0.9 0.9 0.00 0.00 0.00 38 966.3
20260508193959 66 248 1.7 1.7 0.00 0.00 0.00 38 966.6
20260508193457 66 305 0.0 0.9 0.00 0.00 0.00 40 966.8
20260508192956 66 213 0.9 1.7 0.00 0.00 0.00 38 966.9
20260508192453 66 162 0.9 1.7 0.00 0.00 0.00 40 967.0
20260508191951 65 131 0.0 0.0 0.00 0.00 0.00 41 967.1
20260508191449 65 169 0.0 0.9 0.00 0.00 0.00 43 967.1
20260508190948 65 225 0.9 0.9 0.00 0.00 0.00 40 967.1
20260508190446 65 232 0.9 1.7 0.00 0.00 0.00 42 967.2
20260508185944 65 216 1.7 3.5 0.00 0.00 0.00 38 967.1
20260508185442 65 229 1.7 2.6 0.00 0.00 0.00 39 967.1
20260508184940 64 234 0.9 1.7 0.00 0.00 0.00 45 967.3
20260508184438 64 126 1.7 1.7 0.00 0.00 0.00 42 967.2
20260508183936 64 122 0.9 0.9 0.00 0.00 0.00 45 967.4
20260508183434 64 154 0.9 1.7 0.00 0.00 0.00 42 967.5
20260508182931 64 157 0.9 1.7 0.00 0.00 0.00 43 967.5
20260508182429 64 231 0.0 0.9 0.00 0.00 0.00 37 967.6
20260508181927 63 222 0.9 0.9 0.00 0.00 0.00 43 967.7
20260508181423 63 128 0.0 0.9 0.00 0.00 0.00 42 967.6
20260508180921 63 99 0.9 0.9 0.00 0.00 0.00 43 967.6
20260508180419 63 56 0.9 1.7 0.00 0.00 0.00 41 967.6
20260508175917 63 69 0.9 0.9 0.00 0.00 0.00 43 967.7
20260508175415 64 90 0.9 1.7 0.00 0.00 0.00 42 967.8
20260508174913 64 116 0.0 0.9 0.00 0.00 0.00 45 967.9
20260508174411 63 164 0.0 0.0 0.00 0.00 0.00 37 967.9
20260508173909 63 135 0.0 0.9 0.00 0.00 0.00 38 968.0
20260508173407 63 121 0.0 0.9 0.00 0.00 0.00 39 968.1
20260508172905 62 171 0.9 0.9 0.00 0.00 0.00 40 968.1
20260508172403 62 214 0.9 0.9 0.00 0.00 0.00 37 968.1
20260508171901 62 160 0.9 1.7 0.00 0.00 0.00 41 968.3
20260508171359 62 234 0.0 0.9 0.00 0.00 0.00 40 968.4
20260508170857 62 199 0.9 0.9 0.00 0.00 0.00 37 968.4
20260508170355 63 217 0.9 1.7 0.00 0.00 0.00 40 968.5
20260508165853 62 166 0.0 0.9 0.00 0.00 0.00 41 968.6
20260508165351 62 91 0.9 1.7 0.00 0.00 0.00 42 968.8
20260508164849 62 122 0.9 1.7 0.00 0.00 0.00 47 969.0
20260508164347 62 103 0.0 0.0 0.00 0.00 0.00 50 969.1
20260508163845 62 116 0.9 1.7 0.00 0.00 0.00 45 969.1
20260508163343 61 255 0.0 0.9 0.00 0.00 0.00 45 969.2
20260508162841 61 189 0.9 1.7 0.00 0.00 0.00 44 969.2
20260508162339 61 154 0.9 1.7 0.00 0.00 0.00 45 969.3
20260508161837 61 120 0.9 0.9 0.00 0.00 0.00 41 969.3
20260508161335 60 140 0.9 1.7 0.00 0.00 0.00 42 969.4
20260508160833 60 153 0.9 2.6 0.00 0.00 0.00 41 969.4
20260508160331 60 96 0.0 0.9 0.00 0.00 0.00 43 969.5
20260508155829 61 73 0.0 0.9 0.00 0.00 0.00 43 969.5
20260508155327 61 103 0.0 0.9 0.00 0.00 0.00 47 969.5
20260508154825 60 175 0.9 1.7 0.00 0.00 0.00 48 969.6
20260508154323 60 183 0.9 0.9 0.00 0.00 0.00 45 969.6
20260508153821 60 178 0.0 0.9 0.00 0.00 0.00 48 969.7
20260508153319 60 297 0.0 0.9 0.00 0.00 0.00 43 969.8
20260508152817 60 312 0.0 0.0 0.00 0.00 0.00 45 969.9
20260508152315 59 312 0.0 0.0 0.00 0.00 0.00 44 970.0
20260508151812 59 305 0.0 1.7 0.00 0.00 0.00 46 970.0
20260508150808 59 127 0.9 1.7 0.00 0.00 0.00 49 970.0
20260508150306 59 87 0.9 1.7 0.00 0.00 0.00 50 970.0
20260508145803 58 297 0.0 0.9 0.00 0.00 0.00 49 970.0
20260508145302 58 255 0.0 1.7 0.00 0.00 0.00 47 970.0
20260508144759 58 164 0.9 0.9 0.00 0.00 0.00 43 970.0
20260508144258 58 111 0.9 2.6 0.00 0.00 0.00 48 970.0
20260508143756 58 116 0.9 1.7 0.00 0.00 0.00 49 970.0
20260508143253 58 110 0.9 1.7 0.00 0.00 0.00 57 970.1
20260508142751 57 276 0.0 0.0 0.00 0.00 0.00 57 970.1
20260508141719 57 123 1.7 1.7 0.00 0.00 0.00 58 970.1
20260508141217 57 41 0.0 0.0 0.00 0.00 0.00 60 970.1
20260508140714 58 41 0.9 1.7 0.00 0.00 0.00 61 970.0
20260508140212 57 282 0.0 0.0 0.00 0.00 0.00 62 970.1
20260508135709 57 114 0.9 1.7 0.00 0.00 0.00 63 970.0
20260508135207 57 112 0.9 2.6 0.00 0.00 0.00 62 970.1
20260508134705 57 82 0.9 1.7 0.00 0.00 0.00 62 970.0
20260508134203 57 87 0.9 0.9 0.00 0.00 0.00 62 970.0
20260508133701 58 130 0.9 1.7 0.00 0.00 0.00 59 970.0
20260508133159 58 184 0.0 0.9 0.00 0.00 0.00 62 969.9
20260508132657 58 98 0.0 0.0 0.00 0.00 0.00 62 969.9
20260508132154 57 48 0.9 1.7 0.00 0.00 0.00 60 969.9
20260508131652 56 208 0.0 0.9 0.00 0.00 0.00 61 969.8
20260508131150 56 67 0.0 0.9 0.00 0.00 0.00 63 969.7
20260508130648 56 63 0.9 0.9 0.00 0.00 0.00 60 969.7
20260508130146 55 93 0.9 0.9 0.00 0.00 0.00 65 969.7
20260508125644 55 76 0.9 0.9 0.00 0.00 0.00 61 969.6
20260508125142 54 75 0.9 0.9 0.00 0.00 0.00 62 969.6
20260508124640 54 75 0.9 0.9 0.00 0.00 0.00 60 969.6
20260508124137 54 76 0.9 0.9 0.00 0.00 0.00 61 969.7
20260508123635 54 74 0.9 0.9 0.00 0.00 0.00 59 969.6
20260508123133 54 73 0.9 0.9 0.00 0.00 0.00 64 969.6
20260508122631 54 80 0.9 0.9 0.00 0.00 0.00 65 969.5
20260508122130 54 76 0.9 0.9 0.00 0.00 0.00 68 969.5
20260508121627 54 75 0.9 0.9 0.00 0.00 0.00 67 969.5
20260508121125 54 66 0.9 0.9 0.00 0.00 0.00 66 969.4
20260508120623 54 61 0.9 0.9 0.00 0.00 0.00 69 969.3
20260508120120 55 76 0.9 0.9 0.00 0.00 0.00 66 969.2
20260508115619 55 60 0.9 0.9 0.00 0.00 0.00 61 969.1
20260508115116 55 54 0.0 0.9 0.00 0.00 0.00 59 969.1
20260508114614 53 49 0.0 0.0 0.00 0.00 0.00 59 969.0
20260508114112 52 45 0.0 0.0 0.00 0.00 0.00 64 969.0
20260508113610 51 46 0.0 0.0 0.00 0.00 0.00 66 969.0
20260508113109 49 47 0.0 0.0 0.00 0.00 0.00 68 968.8
20260508112606 48 44 0.0 0.0 0.00 0.00 0.00 68 968.8
20260508112104 48 44 0.0 0.0 0.00 0.00 0.00 70 968.7
20260508111602 47 45 0.0 0.0 0.00 0.00 0.00 70 968.6
20260508111059 47 45 0.0 0.0 0.00 0.00 0.00 69 968.6
20260508110557 47 45 0.0 0.0 0.00 0.00 0.00 68 968.6
20260508110055 46 45 0.0 0.0 0.00 0.00 0.00 66 968.5
20260508105553 46 44 0.0 0.0 0.00 0.00 0.00 66 968.4
20260508105051 46 44 0.0 0.0 0.00 0.00 0.00 67 968.4
20260508104549 46 44 0.0 0.0 0.00 0.00 0.00 67 968.3
20260508104047 46 43 0.0 0.0 0.00 0.00 0.00 68 968.2
20260508103545 46 43 0.0 0.0 0.00 0.00 0.00 69 968.2
20260508103043 45 43 0.0 0.0 0.00 0.00 0.00 69 968.2
20260508102541 45 44 0.0 0.0 0.00 0.00 0.00 71 968.2
20260508102039 45 44 0.0 0.0 0.00 0.00 0.00 74 968.2
20260508101536 45 45 0.0 0.0 0.00 0.00 0.00 73 968.1
20260508101035 45 44 0.0 0.0 0.00 0.00 0.00 76 968.1
20260508100533 45 44 0.0 0.0 0.00 0.00 0.00 74 968.1
20260508100030 45 45 0.0 0.0 0.00 0.00 0.00 72 968.0
20260508095528 46 43 0.0 0.0 0.00 0.00 0.00 74 968.0
20260508095026 46 44 0.0 0.0 0.00 0.00 0.00 71 968.0
20260508094524 46 43 0.0 0.0 0.00 0.00 0.00 68 967.9
20260508094022 45 43 0.0 0.0 0.00 0.00 0.00 71 967.9
20260508093519 44 45 0.0 0.0 0.00 0.00 0.00 73 968.0
20260508093017 44 44 0.0 0.0 0.00 0.00 0.00 75 967.9
20260508092515 45 44 0.0 0.0 0.00 0.00 0.00 75 968.0
20260508092013 45 42 0.0 0.0 0.00 0.00 0.00 72 967.9
20260508091511 46 43 0.0 0.0 0.00 0.00 0.00 72 967.9
20260508091009 47 42 0.0 0.0 0.00 0.00 0.00 72 967.9
20260508090507 48 43 0.0 0.0 0.00 0.00 0.00 69 967.8
20260508090006 48 43 0.0 0.0 0.00 0.00 0.00 64 967.7
20260508085503 48 43 0.0 0.0 0.00 0.00 0.00 65 967.7
20260508085001 48 41 0.0 0.0 0.00 0.00 0.00 65 967.7
20260508084459 47 41 0.0 0.0 0.00 0.00 0.00 66 967.7
20260508083957 47 44 0.0 0.9 0.00 0.00 0.00 66 967.7
20260508083455 47 44 0.0 0.0 0.00 0.00 0.00 69 967.8
20260508082953 47 43 0.0 0.0 0.00 0.00 0.00 71 967.8
20260508082451 47 44 0.0 0.0 0.00 0.00 0.00 69 967.7
20260508081949 47 44 0.0 0.0 0.00 0.00 0.00 67 967.6
20260508081447 48 43 0.0 0.0 0.00 0.00 0.00 68 967.6
20260508080945 47 43 0.0 0.0 0.00 0.00 0.00 66 967.7
20260508080443 47 44 0.0 0.0 0.00 0.00 0.00 67 967.7
20260508075941 47 42 0.0 0.0 0.00 0.00 0.00 68 967.7
20260508075439 47 44 0.0 0.0 0.00 0.00 0.00 73 967.8
20260508074937 47 45 0.0 0.0 0.00 0.00 0.00 74 967.9
20260508074435 48 44 0.0 0.0 0.00 0.00 0.00 72 967.9
20260508073933 47 44 0.0 0.0 0.00 0.00 0.00 67 967.8
20260508073431 47 44 0.0 0.0 0.00 0.00 0.00 69 967.8
20260508072929 47 42 0.0 0.0 0.00 0.00 0.00 70 967.9
20260508072427 46 42 0.0 0.0 0.00 0.00 0.00 73 967.9
20260508071924 46 44 0.0 0.0 0.00 0.00 0.00 74 967.9
20260508071422 47 43 0.0 0.0 0.00 0.00 0.00 76 967.9
20260508070921 48 41 0.0 0.0 0.00 0.00 0.00 73 968.0
20260508070419 48 44 0.0 0.0 0.00 0.00 0.00 71 968.0
20260508065917 49 38 0.0 0.0 0.00 0.00 0.00 68 967.9
20260508065415 49 39 0.0 0.0 0.00 0.00 0.00 68 967.9
20260508064912 49 42 0.0 0.0 0.00 0.00 0.00 67 967.9
20260508064411 49 274 0.0 0.0 0.00 0.00 0.00 67 967.8
20260508063908 49 296 0.0 0.0 0.00 0.00 0.00 67 967.8
20260508063406 49 45 0.0 0.0 0.00 0.00 0.00 68 967.8
20260508062904 49 37 0.0 0.0 0.00 0.00 0.00 67 967.9
20260508062402 49 39 0.0 0.0 0.00 0.00 0.00 67 968.0
20260508061900 49 33 0.0 0.0 0.00 0.00 0.00 67 968.0
20260508061358 49 41 0.0 0.0 0.00 0.00 0.00 69 968.1
20260508060856 49 40 0.0 0.0 0.00 0.00 0.00 71 968.1
20260508060354 49 44 0.0 0.0 0.00 0.00 0.00 70 968.1
20260508055852 49 44 0.0 0.0 0.00 0.00 0.00 69 968.1
20260508055350 49 44 0.0 0.0 0.00 0.00 0.00 69 968.1
20260508054848 48 43 0.0 0.0 0.00 0.00 0.00 70 968.0
20260508054345 48 65 0.0 0.9 0.00 0.00 0.00 71 968.1
20260508053844 49 64 0.0 0.0 0.00 0.00 0.00 72 968.2
20260508053341 49 58 0.0 0.9 0.00 0.00 0.00 71 968.1
20260508052840 49 53 0.0 0.9 0.00 0.00 0.00 70 968.2
20260508052337 49 52 0.0 0.9 0.00 0.00 0.00 68 968.2
20260508051836 50 42 0.0 0.0 0.00 0.00 0.00 68 968.2
20260508051333 50 42 0.0 0.0 0.00 0.00 0.00 69 968.1
20260508050831 50 38 0.0 0.0 0.00 0.00 0.00 69 968.1
20260508050329 50 44 0.0 0.0 0.00 0.00 0.00 69 968.1
20260508045827 50 43 0.0 0.0 0.00 0.00 0.00 69 968.1
20260508045325 50 43 0.0 0.0 0.00 0.00 0.00 68 968.0
20260508044823 51 41 0.0 0.0 0.00 0.00 0.00 70 968.0
20260508044321 51 43 0.0 0.0 0.00 0.00 0.00 66 967.9
20260508043819 51 45 0.0 0.0 0.00 0.00 0.00 66 967.9
20260508043317 51 45 0.0 0.0 0.00 0.00 0.00 66 967.9
20260508042815 51 44 0.0 0.0 0.00 0.00 0.00 65 967.8
20260508042313 52 43 0.0 0.0 0.00 0.00 0.00 66 967.8
20260508041811 52 40 0.0 0.0 0.00 0.00 0.00 65 967.7
20260508041309 52 41 0.0 0.0 0.00 0.00 0.00 64 967.6
20260508040807 53 44 0.0 0.9 0.00 0.00 0.00 63 967.6
20260508040305 53 42 0.0 0.0 0.00 0.00 0.00 63 967.6
20260508035803 53 37 0.0 0.0 0.00 0.00 0.00 62 967.6
20260508035300 53 41 0.0 0.0 0.00 0.00 0.00 62 967.5
20260508034759 54 27 0.0 0.0 0.00 0.00 0.00 61 967.6
20260508034256 54 38 0.0 0.0 0.00 0.00 0.00 61 967.5
20260508033754 54 34 0.0 0.0 0.00 0.00 0.00 60 967.5
20260508033252 54 28 0.0 0.0 0.00 0.00 0.00 60 967.5
20260508032750 54 6 0.0 0.0 0.00 0.00 0.00 60 967.5
20260508032248 55 333 0.0 0.9 0.00 0.00 0.00 60 967.5
20260508031746 55 35 0.0 0.0 0.00 0.00 0.00 59 967.3
20260508031244 55 19 0.0 0.0 0.00 0.00 0.00 59 967.3
20260508030742 55 37 0.0 0.0 0.00 0.00 0.00 59 967.3
20260508030240 55 36 0.9 1.7 0.00 0.00 0.00 58 967.4
20260508025738 55 33 0.0 0.9 0.00 0.00 0.00 59 967.5
20260508025236 55 33 0.0 0.9 0.00 0.00 0.00 59 967.6
20260508024733 56 42 0.0 0.9 0.00 0.00 0.00 58 967.4
20260508024231 56 10 0.0 0.9 0.00 0.00 0.00 58 967.4
20260508023729 56 9 0.0 0.9 0.00 0.00 0.00 57 967.3
20260508023227 56 336 0.9 0.9 0.00 0.00 0.00 57 967.3
20260508022724 56 15 0.0 0.9 0.00 0.00 0.00 57 967.3
20260508022222 56 10 0.9 0.9 0.00 0.00 0.00 56 967.2
20260508021720 56 27 0.0 0.0 0.00 0.00 0.00 57 967.1
20260508021218 56 18 0.9 1.7 0.00 0.00 0.00 56 967.0
20260508020716 56 291 0.9 2.6 0.00 0.00 0.00 57 966.9
20260508020214 56 37 0.0 0.9 0.00 0.00 0.00 58 966.9
20260508015712 56 35 0.0 0.9 0.00 0.00 0.00 58 966.8
20260508015210 56 27 0.0 0.9 0.00 0.00 0.00 58 966.7
20260508014708 56 295 0.0 0.9 0.00 0.00 0.00 58 966.7
20260508014206 56 347 0.0 0.9 0.00 0.00 0.00 57 966.5
20260508013704 57 313 0.0 0.0 0.00 0.00 0.00 57 966.7
20260508013202 57 27 0.0 0.9 0.00 0.00 0.00 57 966.5
20260508012659 57 14 0.0 0.0 0.00 0.00 0.00 59 966.4
20260508012154 57 17 0.0 0.0 0.00 0.00 0.00 58 966.3
20260508011652 57 32 0.0 0.0 0.00 0.00 0.00 58 966.2
20260508011150 57 37 0.0 0.0 0.00 0.00 0.00 58 966.2
20260508010648 57 38 0.0 0.0 0.00 0.00 0.00 58 966.2
20260508010146 57 12 0.0 0.9 0.00 0.00 0.00 58 966.1
20260508005643 57 42 0.0 0.0 0.00 0.00 0.00 59 966.0
20260508005141 57 25 0.0 0.0 0.00 0.00 0.00 59 966.0
20260508004639 58 32 0.0 0.9 0.00 0.00 0.00 59 966.0
20260508004137 58 35 0.0 0.0 0.00 0.00 0.00 58 965.9
20260508003635 58 28 0.0 0.0 0.00 0.00 0.00 58 965.8
20260508003133 59 35 0.0 0.0 0.00 0.00 0.00 57 965.7
20260508002631 59 32 0.9 0.9 0.00 0.00 0.00 56 965.7
20260508002129 59 33 0.0 0.9 0.00 0.00 0.00 57 965.6
20260508001627 59 337 0.9 0.9 0.00 0.00 0.00 55 965.6
20260508001125 60 307 0.0 0.0 0.00 0.00 0.00 56 965.5